Terminal Aerodrome Forecast
Issued by NWS

Current Version | Previous Version | Text Only | Print | Product List | Glossary On
Versions: 1 2 3 4 5 6 7 8 9 10 11 12 13 14 15 16
000
FTUS43 KILX 281742
TAFCMI
TAF
KCMI 281742Z 2818/0118 18014G24KT 2SM BR OVC004
     FM281900 18014G24KT 4SM BR OVC008
     FM282300 19012G20KT P6SM VCTS SCT025CB OVC120 WS020/21045KT
      TEMPO 0108/0110 1SM TSRA OVC015CB
     FM011000 23012KT P6SM OVC015
     FM011400 26015G25KT P6SM BKN015=

USA.gov is the U.S. government's official web portal to all federal, state and local government web resources and services.